Uster, Switzerland
Current Conditions -  °F | °C
As of 12:50 PM on Monday 22 Dec 2014 (Local Time) from LSMD Reporting Station
Clear Clear  
Wind Chill: 43°   Ceiling: Unl
Heat Index: 43°   Visibility: 6mi
Dew Point: 34°   Wind: 1mph
Humidity: 70%   Direction: NA
Pressure: 30.45"   Gusts: NA
Location:  47.36°N, 8.71°E
Report Text: LSMD 221150Z AUTO VRB01KT 9999NDV NCD 06/01 Q1031 RMK BLU
Loading
Personal Weather Stations






























Interactive Weather Map New forecast layout! Learn more

10-Day Weather Forecast

Advertisements
Track Severe Weather on mobile